Time;durP1;ratioP1;P1;durP2;ratioP2;P2;SDS_P1;SDS_P2;PMS_P1;PMS_P2;Temp;Humidity;BMP_temperature;BMP_pressure;BME280_temperature;BME280_humidity;BME280_pressure;Samples;Min_cycle;Max_cycle;Signal;HPM_P1;HPM_P2
2022/05/16 00:01:23;;;;;;;3.78;2.63;;;14.50;99.90;;;;;;5278209;28;20389;-72
2022/05/16 00:03:59;;;;;;;1.77;1.60;;;14.50;99.90;;;;;;5278676;28;20021;-73
2022/05/16 00:06:30;;;;;;;1.30;1.20;;;14.50;99.90;;;;;;5247923;28;20367;-73
2022/05/16 00:09:05;;;;;;;1.30;1.20;;;14.40;99.90;;;;;;5264313;28;20562;-72
2022/05/16 00:11:37;;;;;;;1.33;1.23;;;14.40;99.90;;;;;;5263429;28;20337;-73
2022/05/16 00:14:13;;;;;;;2.72;2.08;;;14.40;99.90;;;;;;5278679;28;20023;-72
2022/05/16 00:16:49;;;;;;;1.23;1.10;;;14.40;99.90;;;;;;5262435;28;20384;-73
2022/05/16 00:19:26;;;;;;;1.90;1.77;;;14.40;99.90;;;;;;5282740;28;20036;-73
2022/05/16 00:22:00;;;;;;;1.73;1.63;;;14.40;99.90;;;;;;5282284;28;20368;-73
2022/05/16 00:24:31;;;;;;;2.35;1.80;;;14.40;99.90;;;;;;5282317;28;20007;-73
2022/05/16 00:27:03;;;;;;;1.70;1.40;;;14.30;99.90;;;;;;5282216;28;20027;-72
2022/05/16 00:29:35;;;;;;;4.70;1.70;;;14.40;99.90;;;;;;5282438;28;20035;-72
2022/05/16 00:32:07;;;;;;;1.52;1.40;;;14.40;99.90;;;;;;5241436;28;20042;-72
2022/05/16 00:34:40;;;;;;;1.67;1.42;;;14.40;99.90;;;;;;5265956;28;20384;-72
2022/05/16 00:37:11;;;;;;;1.85;1.75;;;14.40;99.90;;;;;;5296998;27;20020;-72
2022/05/16 00:39:43;;;;;;;1.60;1.50;;;14.40;99.90;;;;;;5281140;28;20030;-72
2022/05/16 00:42:17;;;;;;;1.83;1.50;;;14.40;99.90;;;;;;5281605;28;20032;-72
2022/05/16 00:44:51;;;;;;;1.45;1.35;;;14.30;99.90;;;;;;5282315;28;20042;-73
2022/05/16 00:47:24;;;;;;;1.57;1.23;;;14.20;99.90;;;;;;5282873;28;20042;-71
2022/05/16 00:50:01;;;;;;;2.13;1.60;;;14.20;99.90;;;;;;5274980;28;20999;-72
2022/05/16 00:52:44;;;;;;;4.28;1.58;;;14.10;99.90;;;;;;5269598;28;20027;-72
2022/05/16 00:55:38;;;;;;;1.30;1.23;;;14.00;99.90;;;;;;5281720;28;20024;-73
2022/05/16 00:58:15;;;;;;;1.65;1.55;;;14.00;99.90;;;;;;5263966;28;20016;-72
2022/05/16 01:00:48;;;;;;;1.80;1.70;;;14.00;99.90;;;;;;5274939;28;20029;-72
2022/05/16 01:06:12;;;;;;;1.75;1.50;;;13.90;99.90;;;;;;5264302;27;20115;-72
2022/05/16 01:08:47;;;;;;;1.42;1.33;;;13.90;99.90;;;;;;5268792;27;20051;-73
2022/05/16 01:11:26;;;;;;;4.40;2.58;;;13.80;99.90;;;;;;5303211;27;20081;-72
2022/05/16 01:14:00;;;;;;;1.38;1.27;;;13.90;99.90;;;;;;5269474;27;20019;-73
2022/05/16 01:16:36;;;;;;;1.80;1.70;;;13.80;99.90;;;;;;5284939;27;20031;-73
2022/05/16 01:19:10;;;;;;;4.28;2.10;;;13.80;99.90;;;;;;5251337;28;20023;-72
2022/05/16 01:21:41;;;;;;;2.17;1.50;;;13.90;99.90;;;;;;5280350;28;20020;-72
2022/05/16 01:24:16;;;;;;;4.57;1.70;;;13.90;99.90;;;;;;5282065;28;20276;-72
2022/05/16 01:26:53;;;;;;;1.98;1.77;;;13.90;99.90;;;;;;5279993;28;20011;-72
2022/05/16 01:29:26;;;;;;;1.30;1.20;;;13.90;99.90;;;;;;5276756;28;20026;-73
2022/05/16 01:32:03;;;;;;;1.67;1.38;;;13.80;99.90;;;;;;5252194;28;20040;-72
2022/05/16 01:34:38;;;;;;;4.90;1.75;;;13.80;99.90;;;;;;5264236;28;20023;-72
2022/05/16 01:37:09;;;;;;;1.77;1.60;;;13.70;99.90;;;;;;5278777;27;20027;-71
2022/05/16 01:39:43;;;;;;;2.22;2.03;;;13.60;99.90;;;;;;5303568;27;20027;-72
2022/05/16 01:42:14;;;;;;;2.28;2.08;;;13.50;99.90;;;;;;5261902;28;20018;-71
2022/05/16 01:44:48;;;;;;;4.60;2.10;;;13.50;99.90;;;;;;5276571;28;20023;-72
2022/05/16 01:47:21;;;;;;;1.50;1.40;;;13.40;99.90;;;;;;5259616;28;20010;-70
2022/05/16 01:49:53;;;;;;;3.65;2.50;;;13.40;99.90;;;;;;5261920;28;20032;-73
2022/05/16 01:52:26;;;;;;;2.50;1.92;;;13.30;99.90;;;;;;5253832;28;20333;-72
2022/05/16 01:55:00;;;;;;;2.20;1.88;;;13.30;99.90;;;;;;5264491;28;20039;-71
2022/05/16 01:57:31;;;;;;;1.70;1.60;;;13.30;99.90;;;;;;5280966;28;20046;-70
2022/05/16 02:00:04;;;;;;;2.63;2.28;;;13.40;99.90;;;;;;5268193;28;20031;-71
2022/05/16 02:02:42;;;;;;;1.50;1.35;;;13.40;99.90;;;;;;5263251;28;20037;-71
2022/05/16 02:05:21;;;;;;;2.25;1.92;;;13.40;99.90;;;;;;5277127;27;20043;-71
2022/05/16 02:08:00;;;;;;;3.13;2.05;;;13.30;99.90;;;;;;5271851;28;20035;-73
2022/05/16 02:10:33;;;;;;;2.10;1.90;;;13.30;99.90;;;;;;5289774;27;20015;-72
2022/05/16 02:13:11;;;;;;;6.80;2.08;;;13.30;99.90;;;;;;5262331;28;20470;-70
2022/05/16 02:15:47;;;;;;;1.75;1.50;;;13.30;99.90;;;;;;5261482;28;20031;-72
2022/05/16 02:18:18;;;;;;;2.15;1.50;;;13.30;99.90;;;;;;5279547;28;20028;-72
2022/05/16 02:20:49;;;;;;;1.42;1.33;;;13.30;99.90;;;;;;5279593;28;20016;-72
2022/05/16 02:26:10;;;;;;;1.95;1.40;;;13.30;99.90;;;;;;5258702;28;20026;-72
2022/05/16 02:28:44;;;;;;;2.47;2.28;;;13.30;99.90;;;;;;5261134;28;20030;-73
2022/05/16 02:31:20;;;;;;;2.75;1.85;;;13.30;99.90;;;;;;5248128;28;20027;-73
2022/05/16 02:33:51;;;;;;;2.00;1.70;;;13.30;99.90;;;;;;5263652;28;20507;-72
2022/05/16 02:36:28;;;;;;;2.63;2.05;;;13.40;99.90;;;;;;5261296;27;20037;-72
2022/05/16 02:39:02;;;;;;;1.83;1.73;;;13.30;99.90;;;;;;5299365;27;20031;-73
2022/05/16 02:41:34;;;;;;;3.83;1.90;;;13.40;99.90;;;;;;5300614;27;20026;-73
2022/05/16 02:44:06;;;;;;;2.17;1.65;;;13.40;99.90;;;;;;5260167;28;20028;-72
2022/05/16 02:46:37;;;;;;;2.20;2.00;;;13.30;99.90;;;;;;5261142;28;20368;-73
2022/05/16 02:49:10;;;;;;;1.65;1.55;;;13.30;99.90;;;;;;5279594;28;20478;-73
2022/05/16 02:51:43;;;;;;;1.65;1.40;;;13.30;99.90;;;;;;5259993;28;20041;-73
2022/05/16 02:54:14;;;;;;;4.35;2.63;;;13.20;99.90;;;;;;5261955;28;20339;-72
2022/05/16 02:56:45;;;;;;;2.60;1.83;;;13.20;99.90;;;;;;5274735;28;20012;-73
2022/05/16 02:59:23;;;;;;;2.10;1.75;;;13.10;99.90;;;;;;5278718;28;20035;-73
2022/05/16 03:01:56;;;;;;;1.48;1.38;;;13.10;99.90;;;;;;5270381;28;20016;-72
2022/05/16 03:04:27;;;;;;;2.70;2.45;;;13.10;99.90;;;;;;5248502;28;20016;-73
2022/05/16 03:06:59;;;;;;;1.92;1.83;;;13.10;99.90;;;;;;5241540;28;20030;-72
2022/05/16 03:09:32;;;;;;;3.67;1.90;;;13.00;99.90;;;;;;5264403;28;20015;-73
2022/05/16 03:12:03;;;;;;;2.92;1.77;;;13.00;99.90;;;;;;5266010;28;20031;-72
2022/05/16 03:14:35;;;;;;;2.22;2.03;;;13.00;99.90;;;;;;5286903;28;20030;-72
2022/05/16 03:17:07;;;;;;;1.77;1.65;;;12.90;99.90;;;;;;5279842;28;20043;-73
2022/05/16 03:19:42;;;;;;;3.10;2.53;;;12.90;99.90;;;;;;5274737;28;20039;-71
2022/05/16 03:22:13;;;;;;;2.45;2.25;;;12.90;99.90;;;;;;5278364;28;20020;-71
2022/05/16 03:24:45;;;;;;;3.28;2.00;;;13.00;99.90;;;;;;5277553;28;20026;-72
2022/05/16 03:27:16;;;;;;;3.25;2.17;;;13.00;99.90;;;;;;5264855;28;20016;-71
2022/05/16 03:29:49;;;;;;;10.15;2.92;;;13.10;99.90;;;;;;5270009;28;20028;-70
2022/05/16 03:32:21;;;;;;;2.40;2.20;;;13.10;99.90;;;;;;5278778;28;20039;-72
2022/05/16 03:34:55;;;;;;;2.55;2.35;;;13.10;99.90;;;;;;5280055;28;20033;-71
2022/05/16 03:37:26;;;;;;;3.40;2.55;;;13.10;99.90;;;;;;5295582;28;20031;-72
2022/05/16 03:42:52;;;;;;;2.35;2.08;;;13.10;99.90;;;;;;5258334;28;20004;-72
2022/05/16 03:45:23;;;;;;;3.33;2.28;;;13.10;99.90;;;;;;5260354;28;20019;-72
2022/05/16 03:47:57;;;;;;;2.42;2.20;;;13.00;99.90;;;;;;5280878;28;20229;-71
2022/05/16 03:50:28;;;;;;;2.53;2.15;;;13.10;99.90;;;;;;5261967;28;20023;-72
2022/05/16 03:53:07;;;;;;;2.28;2.08;;;13.10;99.90;;;;;;5276908;28;20622;-72
2022/05/16 03:55:38;;;;;;;2.88;1.98;;;13.10;99.90;;;;;;5283696;28;20221;-72
2022/05/16 03:58:12;;;;;;;2.28;2.08;;;13.20;99.90;;;;;;5283581;28;20213;-72
2022/05/16 04:00:45;;;;;;;3.17;2.70;;;13.20;99.90;;;;;;5283390;28;20087;-72
2022/05/16 04:03:16;;;;;;;2.67;2.47;;;13.30;99.90;;;;;;5280363;28;20028;-72
2022/05/16 04:05:58;;;;;;;3.10;2.53;;;13.40;99.90;;;;;;5246602;27;20045;-72
2022/05/16 04:08:31;;;;;;;3.70;2.55;;;13.50;99.90;;;;;;5269498;27;20019;-71
2022/05/16 04:11:03;;;;;;;1.48;1.38;;;13.50;99.90;;;;;;5304744;27;20019;-72
2022/05/16 04:13:35;;;;;;;3.22;2.47;;;13.70;99.90;;;;;;5304294;27;20038;-72
2022/05/16 04:16:10;;;;;;;2.90;2.20;;;13.90;99.90;;;;;;5304464;27;20023;-72
2022/05/16 04:18:44;;;;;;;2.70;2.50;;;14.10;99.90;;;;;;5286370;27;20042;-72
2022/05/16 04:21:15;;;;;;;5.10;2.20;;;14.30;99.90;;;;;;5264557;28;20018;-72
2022/05/16 04:23:46;;;;;;;4.90;2.00;;;14.50;99.90;;;;;;5265449;28;20340;-72
2022/05/16 04:26:18;;;;;;;9.50;2.88;;;14.80;99.90;;;;;;5265727;28;20469;-72
2022/05/16 04:28:49;;;;;;;2.40;1.98;;;15.00;99.90;;;;;;5265378;28;20032;-73
2022/05/16 04:31:25;;;;;;;2.45;2.15;;;15.20;99.90;;;;;;5283372;28;20547;-72
2022/05/16 04:33:56;;;;;;;3.67;2.15;;;15.40;99.90;;;;;;5283636;28;20023;-72
2022/05/16 04:36:29;;;;;;;1.90;1.80;;;15.60;99.90;;;;;;5294941;27;20031;-72
2022/05/16 04:39:06;;;;;;;2.17;1.92;;;15.70;99.90;;;;;;5286525;27;20034;-72
2022/05/16 04:44:38;;;;;;;2.90;2.67;;;16.00;99.90;;;;;;5276774;28;20034;-73
2022/05/16 04:47:12;;;;;;;4.93;2.85;;;16.10;99.90;;;;;;5271653;28;20020;-72
2022/05/16 04:49:44;;;;;;;4.32;2.20;;;16.20;99.90;;;;;;5232347;28;20110;-72
2022/05/16 04:52:20;;;;;;;2.90;2.60;;;16.30;99.90;;;;;;5275640;28;20035;-71
2022/05/16 04:54:59;;;;;;;2.35;2.15;;;16.40;99.90;;;;;;5283818;28;20038;-72
2022/05/16 04:57:36;;;;;;;4.53;2.10;;;16.50;99.90;;;;;;5283426;28;20034;-72
2022/05/16 05:00:09;;;;;;;2.47;2.20;;;16.60;99.90;;;;;;5264559;28;20035;-71
2022/05/16 05:02:41;;;;;;;2.33;2.13;;;16.80;99.90;;;;;;5282260;28;20259;-71
2022/05/16 05:05:17;;;;;;;3.33;2.33;;;16.90;99.90;;;;;;5254775;28;20064;-72
2022/05/16 05:07:50;;;;;;;3.33;2.42;;;17.00;99.90;;;;;;5282465;28;20034;-73
2022/05/16 05:16:11;;;;;;;3.15;2.53;;;18.20;99.90;;;;;;5280127;28;20035;-74
2022/05/16 05:18:43;;;;;;;2.85;2.42;;;18.50;99.90;;;;;;5260315;28;20512;-73
2022/05/16 05:21:17;;;;;;;3.15;2.15;;;18.80;99.90;;;;;;5257075;28;20024;-73
2022/05/16 05:23:48;;;;;;;2.35;2.03;;;18.90;99.90;;;;;;5283396;28;20296;-73
2022/05/16 05:26:27;;;;;;;3.30;2.08;;;19.00;99.90;;;;;;5247668;28;20031;-71
2022/05/16 05:29:03;;;;;;;2.38;2.15;;;19.30;99.90;;;;;;5281802;28;20027;-71
2022/05/16 05:31:34;;;;;;;3.85;2.00;;;19.50;99.90;;;;;;5278034;28;20046;-72
2022/05/16 05:34:06;;;;;;;2.53;2.22;;;19.80;99.90;;;;;;5266248;28;20019;-71
2022/05/16 05:36:47;;;;;;;2.63;1.70;;;20.10;99.90;;;;;;5294207;27;20031;-72
2022/05/16 05:39:20;;;;;;;2.78;2.22;;;20.30;99.90;;;;;;5302555;27;20033;-73
2022/05/16 05:41:52;;;;;;;1.73;1.60;;;20.30;99.90;;;;;;5281674;27;20019;-72
2022/05/16 05:44:23;;;;;;;3.03;1.75;;;20.50;99.90;;;;;;5280905;28;20029;-73
2022/05/16 05:47:01;;;;;;;2.80;2.00;;;20.80;99.90;;;;;;5280987;28;20020;-73
2022/05/16 05:49:36;;;;;;;2.83;2.50;;;21.10;99.90;;;;;;5257304;28;20234;-72
2022/05/16 05:52:10;;;;;;;2.33;1.85;;;21.30;99.90;;;;;;5245234;28;20268;-72
2022/05/16 05:54:51;;;;;;;3.53;1.90;;;21.40;99.90;;;;;;5281791;28;20205;-73
2022/05/16 05:57:25;;;;;;;3.30;2.15;;;21.70;99.90;;;;;;5262995;28;20023;-72
2022/05/16 05:59:59;;;;;;;;;;;21.80;99.90;;;;;;5281440;28;20466;-72
2022/05/16 06:02:33;;;;;;;2.67;2.08;;;21.90;99.90;;;;;;5263112;28;19907;-72
2022/05/16 06:05:11;;;;;;;2.35;1.70;;;22.10;99.90;;;;;;5269895;28;20031;-71
2022/05/16 06:07:43;;;;;;;2.85;1.63;;;22.10;99.90;;;;;;5276692;27;20016;-71
2022/05/16 06:10:15;;;;;;;1.50;1.40;;;22.10;99.90;;;;;;5280498;27;20030;-72
2022/05/16 06:12:46;;;;;;;3.63;2.03;;;22.00;99.90;;;;;;5280160;28;20372;-72
2022/05/16 06:15:20;;;;;;;2.65;2.20;;;22.40;99.90;;;;;;5278359;28;20027;-72
2022/05/16 06:17:51;;;;;;;1.67;1.58;;;22.70;99.90;;;;;;5278038;28;20042;-72
2022/05/16 06:20:23;;;;;;;3.20;2.28;;;23.30;99.90;;;;;;5251193;28;20047;-72
2022/05/16 06:22:55;;;;;;;2.90;2.13;;;23.70;99.90;;;;;;5269649;28;20019;-71
2022/05/16 06:25:39;;;;;;;3.03;1.75;;;23.70;99.90;;;;;;5264148;28;20015;-72
2022/05/16 06:28:22;;;;;;;3.60;2.33;;;23.50;99.90;;;;;;5271405;28;20058;-71
2022/05/16 06:30:57;;;;;;;2.05;1.85;;;23.80;99.90;;;;;;5241184;28;20008;-71
2022/05/16 06:33:30;;;;;;;3.72;2.15;;;23.70;99.90;;;;;;5259397;28;20038;-71
2022/05/16 06:36:11;;;;;;;1.77;1.65;;;23.80;99.90;;;;;;5273732;27;20035;-73
2022/05/16 06:38:45;;;;;;;2.63;2.15;;;24.20;99.90;;;;;;5282462;27;20034;-72
2022/05/16 06:41:16;;;;;;;3.00;2.20;;;24.30;99.90;;;;;;5274512;27;20190;-73
2022/05/16 06:43:48;;;;;;;2.30;2.10;;;23.70;99.90;;;;;;5264586;28;20012;-72
2022/05/16 06:46:21;;;;;;;2.13;1.52;;;23.60;99.90;;;;;;5246463;28;20031;-72
2022/05/16 06:48:53;;;;;;;2.00;1.40;;;23.90;99.90;;;;;;5262015;28;20042;-72
2022/05/16 06:51:26;;;;;;;2.78;1.95;;;24.70;99.90;;;;;;5281165;28;20031;-73
2022/05/16 06:54:01;;;;;;;2.22;1.70;;;24.90;99.90;;;;;;5280663;28;20038;-72
2022/05/16 06:56:32;;;;;;;;;;;25.10;99.90;;;;;;5249109;28;20028;-72
2022/05/16 06:59:05;;;;;;;4.00;1.65;;;24.80;99.90;;;;;;5281106;28;19917;-72
2022/05/16 07:01:37;;;;;;;1.80;1.43;;;25.00;99.90;;;;;;5279693;28;20020;-72
2022/05/16 07:04:08;;;;;;;3.65;1.58;;;25.00;99.90;;;;;;5273269;28;20020;-72
2022/05/16 07:06:40;;;;;;;2.28;1.70;;;24.90;99.90;;;;;;5256668;28;20047;-72
2022/05/16 07:09:14;;;;;;;6.05;1.75;;;25.00;99.90;;;;;;5293552;28;20042;-72
2022/05/16 07:11:45;;;;;;;1.23;1.13;;;25.20;99.90;;;;;;5280916;28;20003;-73
2022/05/16 07:14:19;;;;;;;1.42;1.33;;;25.70;99.90;;;;;;5279094;28;20019;-72
2022/05/16 07:16:53;;;;;;;2.20;1.67;;;25.90;99.90;;;;;;5278506;28;20028;-72
2022/05/16 07:19:29;;;;;;;1.70;1.60;;;25.80;99.90;;;;;;5272741;28;20016;-72
2022/05/16 07:22:02;;;;;;;3.35;1.30;;;25.70;99.90;;;;;;5260582;28;20491;-72
2022/05/16 07:24:36;;;;;;;1.98;1.30;;;25.80;99.90;;;;;;5249109;28;20027;-72
2022/05/16 07:30:02;;;;;;;1.63;1.33;;;26.50;99.90;;;;;;5284857;27;20023;-72
2022/05/16 07:32:42;;;;;;;3.70;1.83;;;26.40;99.90;;;;;;5259789;28;20035;-72
2022/05/16 07:35:20;;;;;;;1.67;1.30;;;26.30;99.90;;;;;;5286205;27;20033;-72
2022/05/16 07:37:59;;;;;;;1.30;1.20;;;26.30;99.90;;;;;;5264817;28;20037;-73
2022/05/16 07:40:39;;;;;;;3.85;1.85;;;26.30;99.90;;;;;;5283983;28;20023;-72
2022/05/16 07:43:13;;;;;;;1.00;1.00;;;26.30;99.90;;;;;;5282988;28;20030;-72
2022/05/16 07:45:48;;;;;;;3.00;1.38;;;26.30;99.90;;;;;;5281988;28;20012;-73
2022/05/16 07:48:25;;;;;;;1.55;1.25;;;26.60;99.90;;;;;;5283710;28;20027;-73
2022/05/16 07:51:01;;;;;;;4.10;1.20;;;26.60;99.90;;;;;;5282581;28;20046;-73
2022/05/16 07:53:32;;;;;;;1.77;1.42;;;26.50;99.90;;;;;;5282546;28;20089;-73
2022/05/16 07:56:04;;;;;;;3.08;1.95;;;26.60;99.90;;;;;;5278158;28;20226;-72
2022/05/16 07:58:36;;;;;;;2.13;1.42;;;26.70;99.90;;;;;;5264219;28;20034;-73
2022/05/16 08:01:07;;;;;;;1.90;1.50;;;27.00;99.90;;;;;;5281848;28;20027;-72
2022/05/16 08:03:38;;;;;;;2.05;1.63;;;27.10;99.90;;;;;;5282390;28;20015;-73
2022/05/16 08:06:09;;;;;;;3.50;1.50;;;26.80;99.90;;;;;;5276240;27;20461;-72
2022/05/16 08:11:33;;;;;;;2.00;1.70;;;26.80;99.90;;;;;;5282674;27;20046;-71
2022/05/16 08:14:05;;;;;;;1.85;1.70;;;26.70;99.90;;;;;;5281533;28;20053;-71
2022/05/16 08:16:46;;;;;;;2.17;1.63;;;26.50;99.90;;;;;;5247569;28;20222;-72
2022/05/16 08:19:19;;;;;;;1.85;1.55;;;27.10;99.90;;;;;;5271465;28;20024;-72
2022/05/16 08:21:55;;;;;;;1.38;1.27;;;27.90;99.90;;;;;;5273318;28;20011;-72
2022/05/16 08:24:28;;;;;;;1.67;1.50;;;27.80;99.90;;;;;;5276953;28;20019;-71
2022/05/16 08:27:02;;;;;;;1.40;1.17;;;27.10;99.90;;;;;;5282644;28;20000;-72
2022/05/16 08:29:36;;;;;;;1.40;1.30;;;26.60;99.90;;;;;;5247993;28;20043;-72
2022/05/16 08:32:07;;;;;;;2.08;1.80;;;26.60;99.90;;;;;;5278207;28;20035;-71
2022/05/16 08:34:38;;;;;;;1.98;1.33;;;27.60;99.90;;;;;;5279779;28;20023;-72
2022/05/16 08:40:06;;;;;;;5.50;1.67;;;29.20;99.90;;;;;;5265394;28;20032;-71
2022/05/16 08:43:01;;;;;;;1.70;1.60;;;29.00;99.90;;;;;;5264076;28;20023;-71
2022/05/16 08:45:36;;;;;;;1.10;1.10;;;28.70;99.90;;;;;;5282275;28;20004;-72
2022/05/16 08:48:28;;;;;;;2.38;1.65;;;29.30;99.90;;;;;;5282103;28;20032;-71
2022/05/16 08:51:10;;;;;;;1.73;1.42;;;29.30;99.90;;;;;;5251317;28;20032;-71
2022/05/16 08:54:03;;;;;;;1.85;1.42;;;30.10;99.90;;;;;;5260495;28;20027;-72
2022/05/16 08:56:38;;;;;;;1.88;1.27;;;29.20;99.90;;;;;;5263672;28;20031;-71
2022/05/16 08:59:16;;;;;;;8.98;2.30;;;29.40;99.90;;;;;;5280001;28;20034;-71
2022/05/16 09:01:59;;;;;;;2.17;1.67;;;28.90;99.90;;;;;;5260221;28;20439;-71
2022/05/16 09:05:15;;;;;;;1.60;1.45;;;28.60;99.90;;;;;;5253026;28;20062;-71
2022/05/16 09:07:50;;;;;;;2.30;1.60;;;29.20;99.90;;;;;;5274930;27;20031;-73
2022/05/16 09:10:37;;;;;;;1.50;1.40;;;29.50;99.90;;;;;;5282019;27;20020;-72
2022/05/16 09:13:22;;;;;;;1.88;1.55;;;29.20;99.90;;;;;;5280350;28;20034;-73
2022/05/16 09:16:04;;;;;;;3.72;1.48;;;30.00;99.90;;;;;;5276350;28;20034;-72
2022/05/16 09:19:00;;;;;;;3.10;1.65;;;29.90;99.90;;;;;;5262234;28;20249;-72
2022/05/16 09:21:49;;;;;;;1.90;1.67;;;30.10;99.90;;;;;;5278857;28;20034;-72
2022/05/16 09:24:35;;;;;;;1.98;1.20;;;30.00;99.90;;;;;;5277429;27;20014;-72
2022/05/16 09:28:34;;;;;;;1.95;1.85;;;29.80;99.90;;;;;;5286646;27;20018;-72
2022/05/16 09:30:21;;;;;;;1.83;1.48;;;30.00;99.90;;;;;;5292564;27;20026;-73
2022/05/16 09:33:02;;;;;;;1.50;1.40;;;30.10;99.90;;;;;;5278105;27;20035;-73
2022/05/16 09:36:02;;;;;;;2.53;1.38;;;30.10;99.90;;;;;;5259604;28;20023;-73
2022/05/16 09:38:38;;;;;;;2.13;1.95;;;30.60;99.90;;;;;;5262384;28;20520;-73
2022/05/16 09:41:42;;;;;;;2.47;1.85;;;31.60;99.90;;;;;;5248421;28;20032;-73
2022/05/16 09:44:32;;;;;;;1.95;1.25;;;31.00;99.90;;;;;;5273812;28;20217;-73
2022/05/16 09:47:28;;;;;;;3.45;1.73;;;29.70;99.90;;;;;;5278982;28;20027;-73
2022/05/16 09:50:03;;;;;;;1.23;1.13;;;29.70;99.90;;;;;;5281260;28;20015;-72
2022/05/16 09:52:45;;;;;;;1.98;1.40;;;29.60;99.90;;;;;;5262293;28;20024;-72
2022/05/16 09:55:30;;;;;;;2.47;1.98;;;30.20;99.90;;;;;;5281263;28;20085;-73
2022/05/16 09:58:22;;;;;;;3.72;1.40;;;31.90;99.90;;;;;;5280816;28;20023;-73
2022/05/16 10:00:56;;;;;;;1.40;1.30;;;31.40;99.90;;;;;;5261968;28;20031;-71
2022/05/16 10:03:35;;;;;;;2.35;1.50;;;31.50;99.90;;;;;;5280895;27;20018;-73
2022/05/16 10:06:09;;;;;;;4.53;1.75;;;31.50;99.90;;;;;;5270599;27;20036;-73
2022/05/16 10:08:48;;;;;;;1.65;1.55;;;31.30;99.90;;;;;;5268365;27;20362;-71
2022/05/16 10:11:28;;;;;;;2.25;1.83;;;32.00;99.90;;;;;;5281685;27;20045;-73
2022/05/16 10:14:03;;;;;;;1.45;1.35;;;32.10;99.90;;;;;;5268014;28;20210;-71
2022/05/16 10:16:42;;;;;;;2.35;2.15;;;31.40;99.90;;;;;;5260547;27;20030;-72
2022/05/16 10:19:20;;;;;;;2.10;1.90;;;31.00;99.90;;;;;;5262279;28;20020;-71
2022/05/16 10:22:00;;;;;;;2.17;1.50;;;29.80;99.90;;;;;;5286122;27;20071;-71
2022/05/16 10:24:42;;;;;;;2.95;1.70;;;31.00;99.90;;;;;;5280482;28;20029;-73
2022/05/16 10:27:19;;;;;;;3.03;1.77;;;31.80;99.90;;;;;;5280004;28;20036;-72
2022/05/16 10:29:56;;;;;;;2.08;1.60;;;32.30;99.90;;;;;;5260988;28;20459;-73
2022/05/16 10:35:43;;;;;;;1.95;1.40;;;32.30;99.90;;;;;;5280711;27;20086;-71
2022/05/16 10:38:38;;;;;;;1.98;1.48;;;32.90;99.90;;;;;;5277150;28;20027;-73
2022/05/16 10:41:43;;;;;;;1.88;1.45;;;35.10;99.90;;;;;;5258740;28;20027;-73
2022/05/16 10:44:36;;;;;;;2.20;1.88;;;35.80;99.90;;;;;;5297629;27;20015;-72
2022/05/16 10:47:13;;;;;;;2.70;1.67;;;35.80;99.90;;;;;;5301118;27;20021;-72
2022/05/16 10:50:01;;;;;;;1.75;1.25;;;35.60;99.90;;;;;;5281732;27;20248;-72
2022/05/16 10:53:01;;;;;;;2.42;1.63;;;36.70;99.90;;;;;;5278523;28;20057;-72
2022/05/16 10:56:08;;;;;;;1.88;1.63;;;36.30;99.90;;;;;;5279330;28;20022;-73
2022/05/16 10:58:54;;;;;;;1.90;1.70;;;37.80;98.90;;;;;;5274618;28;20031;-73
2022/05/16 11:01:30;;;;;;;1.42;1.33;;;39.00;98.00;;;;;;5277832;28;20577;-73
2022/05/16 11:04:38;;;;;;;1.77;1.67;;;39.60;96.30;;;;;;5277989;28;20041;-73
2022/05/16 11:07:37;;;;;;;3.83;2.25;;;39.60;96.00;;;;;;5245206;28;20356;-73
2022/05/16 11:10:24;;;;;;;2.22;1.85;;;39.60;94.10;;;;;;5277862;28;20046;-72
2022/05/16 11:13:16;;;;;;;4.32;1.75;;;38.80;94.00;;;;;;5278084;28;20033;-73
2022/05/16 11:15:57;;;;;;;2.25;1.60;;;39.00;94.00;;;;;;5258988;28;20019;-73
2022/05/16 11:18:45;;;;;;;1.92;1.83;;;40.20;93.40;;;;;;5241877;28;20032;-73
2022/05/16 11:21:36;;;;;;;2.30;2.10;;;40.10;92.30;;;;;;5260029;28;20022;-73
2022/05/16 11:24:17;;;;;;;2.60;1.52;;;39.40;92.90;;;;;;5260148;28;20042;-73
2022/05/16 11:27:14;;;;;;;4.40;2.10;;;37.90;92.10;;;;;;5279436;28;20024;-73
2022/05/16 11:30:07;;;;;;;1.58;1.45;;;36.80;92.90;;;;;;5192535;28;20514;-73
2022/05/16 11:32:44;;;;;;;2.97;1.98;;;38.60;92.80;;;;;;5188072;28;20026;-73
2022/05/16 11:35:36;;;;;;;1.83;1.70;;;38.60;91.80;;;;;;5178143;28;20026;-73
2022/05/16 11:38:29;;;;;;;2.47;2.13;;;37.60;92.70;;;;;;5196817;28;20205;-73
2022/05/16 11:41:43;;;;;;;2.33;1.90;;;36.90;92.70;;;;;;5196901;28;20042;-72
2022/05/16 11:44:24;;;;;;;2.70;2.50;;;34.80;93.40;;;;;;5170119;28;20033;-73
2022/05/16 11:47:07;;;;;;;1.85;1.60;;;35.30;94.00;;;;;;5174572;28;20144;-72
2022/05/16 11:49:49;;;;;;;2.10;1.90;;;35.70;93.10;;;;;;5174499;28;20026;-73
2022/05/16 11:52:52;;;;;;;2.75;1.73;;;35.90;94.40;;;;;;5179571;28;20029;-73
2022/05/16 12:01:33;;;;;;;3.05;2.72;;;37.30;93.10;;;;;;5191796;28;20033;-73
2022/05/16 12:04:24;;;;;;;1.85;1.75;;;38.70;92.70;;;;;;5182513;28;20030;-73
2022/05/16 12:07:02;;;;;;;1.60;1.50;;;39.80;91.90;;;;;;5210164;28;20046;-73
2022/05/16 12:10:10;;;;;;;2.00;1.60;;;40.70;91.20;;;;;;5291263;28;20027;-73
2022/05/16 12:13:10;;;;;;;1.80;1.70;;;39.60;90.70;;;;;;5293437;27;20360;-73
2022/05/16 12:15:41;;;;;;;2.33;2.00;;;39.10;91.50;;;;;;5285232;27;20031;-71
2022/05/16 12:18:38;;;;;;;2.08;1.98;;;39.10;90.80;;;;;;5305542;27;20320;-71
2022/05/16 12:21:21;;;;;;;3.13;2.10;;;38.50;91.20;;;;;;5288351;27;20019;-71
2022/05/16 12:23:57;;;;;;;2.50;2.15;;;39.40;90.70;;;;;;5281250;28;20022;-71
2022/05/16 12:26:31;;;;;;;2.35;1.80;;;38.20;91.30;;;;;;5264198;28;20024;-72
2022/05/16 12:29:08;;;;;;;3.05;2.40;;;38.90;91.10;;;;;;5270665;28;20015;-71
2022/05/16 12:31:50;;;;;;;3.00;1.90;;;39.50;90.50;;;;;;5279421;28;20311;-70
2022/05/16 12:34:31;;;;;;;1.73;1.63;;;39.60;90.60;;;;;;5276301;28;20020;-71
2022/05/16 12:37:09;;;;;;;2.88;2.22;;;39.80;90.30;;;;;;5277560;27;20030;-71
2022/05/16 12:40:04;;;;;;;1.90;1.70;;;39.70;90.30;;;;;;5277748;28;20028;-70
2022/05/16 12:42:57;;;;;;;1.90;1.77;;;39.70;89.50;;;;;;5277547;28;20023;-71
2022/05/16 12:45:31;;;;;;;3.63;2.10;;;39.40;90.50;;;;;;5277832;28;20027;-71
2022/05/16 12:48:50;;;;;;;2.30;1.35;;;41.00;90.30;;;;;;5273558;28;20428;-72
2022/05/16 12:51:59;;;;;;;3.67;1.98;;;39.70;89.60;;;;;;5187928;28;20044;-72
2022/05/16 12:54:41;;;;;;;1.77;1.58;;;37.70;90.50;;;;;;5188166;28;20189;-72
2022/05/16 12:57:57;;;;;;;2.40;2.15;;;38.30;91.00;;;;;;5187192;28;20024;-74
2022/05/16 13:00:41;;;;;;;2.08;1.95;;;39.70;90.30;;;;;;5187093;28;20029;-72
2022/05/16 13:04:11;;;;;;;2.45;1.65;;;40.90;89.20;;;;;;5191951;28;20028;-70
2022/05/16 13:07:04;;;;;;;3.47;1.70;;;41.60;86.30;;;;;;5105345;29;20050;-70
2022/05/16 13:10:05;;;;;;;2.20;2.00;;;40.30;88.50;;;;;;5113188;28;20019;-71
2022/05/16 13:12:45;;;;;;;2.75;1.90;;;41.40;85.90;;;;;;5097835;29;20475;-72
2022/05/16 13:15:24;;;;;;;3.08;1.80;;;42.60;85.80;;;;;;5111281;28;20037;-71
2022/05/16 13:18:02;;;;;;;1.83;1.73;;;42.60;86.40;;;;;;5113079;28;20027;-72
2022/05/16 13:20:42;;;;;;;2.42;2.08;;;42.50;84.10;;;;;;5115142;29;20046;-71
2022/05/16 13:23:14;;;;;;;4.15;2.00;;;42.00;83.60;;;;;;5110048;28;20027;-71
2022/05/16 13:31:45;;;;;;;2.55;2.22;;;43.00;83.40;;;;;;5189849;28;19906;-71
2022/05/16 13:34:39;;;;;;;3.50;2.55;;;41.90;86.30;;;;;;5196468;28;20384;-71
2022/05/16 13:37:14;;;;;;;2.10;1.90;;;42.70;82.60;;;;;;5240141;28;20027;-70
2022/05/16 13:39:54;;;;;;;2.40;2.20;;;43.00;82.90;;;;;;5279448;28;20027;-71
2022/05/16 13:42:25;;;;;;;2.08;1.95;;;41.10;83.40;;;;;;5279041;28;20024;-72
2022/05/16 13:45:01;;;;;;;2.40;2.00;;;40.90;85.50;;;;;;5259931;28;20033;-71
2022/05/16 13:47:36;;;;;;;2.10;1.90;;;41.60;84.70;;;;;;5249754;28;20024;-71
2022/05/16 13:50:18;;;;;;;1.88;1.77;;;42.60;84.60;;;;;;5257333;28;20023;-73
2022/05/16 13:52:52;;;;;;;3.85;2.28;;;43.20;81.30;;;;;;5268166;28;20016;-71
2022/05/16 13:55:25;;;;;;;2.00;1.83;;;42.70;82.00;;;;;;5278560;28;20312;-72
2022/05/16 13:58:02;;;;;;;2.22;2.03;;;42.60;81.50;;;;;;5276600;28;20029;-71
2022/05/16 14:00:40;;;;;;;1.77;1.67;;;42.70;83.10;;;;;;5260437;28;20012;-71
2022/05/16 14:03:30;;;;;;;2.30;2.10;;;40.70;83.90;;;;;;5279070;28;20024;-72
2022/05/16 14:06:04;;;;;;;2.45;2.25;;;40.60;83.30;;;;;;5263244;28;20048;-71
2022/05/16 14:08:43;;;;;;;2.00;1.88;;;40.90;83.60;;;;;;5282892;27;20017;-71
2022/05/16 14:11:19;;;;;;;3.08;2.13;;;40.50;83.50;;;;;;5289001;27;20026;-71
2022/05/16 14:13:55;;;;;;;2.10;2.00;;;39.10;85.20;;;;;;5258627;28;20016;-71
2022/05/16 14:16:32;;;;;;;2.22;2.03;;;39.80;85.20;;;;;;5240788;28;20378;-71
2022/05/16 14:19:12;;;;;;;4.18;1.98;;;40.90;84.20;;;;;;5240570;28;20024;-71
2022/05/16 14:21:51;;;;;;;3.17;2.30;;;41.40;83.80;;;;;;5258292;28;20028;-71
2022/05/16 14:24:57;;;;;;;3.13;2.30;;;41.10;82.60;;;;;;5272113;28;20385;-71
2022/05/16 14:28:02;;;;;;;2.45;1.80;;;39.60;84.70;;;;;;5263949;28;20407;-71